sensor_id;sensor_type;location;lat;lon;timestamp;pressure;altitude;pressure_sealevel;temperature;humidity
73063;BME280;61230;46.328;19.972;2022-09-28T00:01:23;99427.13;;;11.70;96.26
73063;BME280;61230;46.328;19.972;2022-09-28T00:03:53;99426.16;;;11.63;96.27
73063;BME280;61230;46.328;19.972;2022-09-28T00:06:25;99425.47;;;11.61;96.72
73063;BME280;61230;46.328;19.972;2022-09-28T00:08:53;99418.41;;;11.62;96.33
73063;BME280;61230;46.328;19.972;2022-09-28T00:11:22;99424.69;;;11.61;96.42
73063;BME280;61230;46.328;19.972;2022-09-28T00:13:52;99420.22;;;11.61;96.19
73063;BME280;61230;46.328;19.972;2022-09-28T00:16:22;99397.50;;;11.60;96.01
73063;BME280;61230;46.328;19.972;2022-09-28T00:18:50;99390.25;;;11.62;95.55
73063;BME280;61230;46.328;19.972;2022-09-28T00:21:32;99397.97;;;11.64;95.92
73063;BME280;61230;46.328;19.972;2022-09-28T00:24:01;99410.16;;;11.65;95.45
73063;BME280;61230;46.328;19.972;2022-09-28T00:26:52;99418.88;;;11.65;94.96
73063;BME280;61230;46.328;19.972;2022-09-28T00:29:38;99430.06;;;11.67;94.72
73063;BME280;61230;46.328;19.972;2022-09-28T00:32:09;99428.94;;;11.62;95.32
73063;BME280;61230;46.328;19.972;2022-09-28T00:34:40;99443.28;;;11.59;95.87
73063;BME280;61230;46.328;19.972;2022-09-28T00:37:09;99438.66;;;11.61;95.76
73063;BME280;61230;46.328;19.972;2022-09-28T00:39:37;99439.31;;;11.63;95.77
73063;BME280;61230;46.328;19.972;2022-09-28T00:42:13;99448.84;;;11.64;95.70
73063;BME280;61230;46.328;19.972;2022-09-28T00:44:47;99449.69;;;11.65;95.22
73063;BME280;61230;46.328;19.972;2022-09-28T00:47:42;99460.22;;;11.65;95.19
73063;BME280;61230;46.328;19.972;2022-09-28T00:50:21;99465.66;;;11.63;95.31
73063;BME280;61230;46.328;19.972;2022-09-28T00:53:04;99474.22;;;11.65;94.60
73063;BME280;61230;46.328;19.972;2022-09-28T00:55:46;99460.06;;;11.66;94.88
73063;BME280;61230;46.328;19.972;2022-09-28T00:58:28;99461.03;;;11.65;94.28
73063;BME280;61230;46.328;19.972;2022-09-28T01:00:57;99460.84;;;11.67;94.09
73063;BME280;61230;46.328;19.972;2022-09-28T01:03:27;99457.75;;;11.71;94.19
73063;BME280;61230;46.328;19.972;2022-09-28T01:05:57;99453.97;;;11.74;93.95
73063;BME280;61230;46.328;19.972;2022-09-28T01:08:28;99452.31;;;11.65;94.23
73063;BME280;61230;46.328;19.972;2022-09-28T01:10:58;99460.06;;;11.74;94.00
73063;BME280;61230;46.328;19.972;2022-09-28T01:13:26;99458.75;;;11.70;93.93
73063;BME280;61230;46.328;19.972;2022-09-28T01:21:24;99447.84;;;11.73;93.83
73063;BME280;61230;46.328;19.972;2022-09-28T01:23:59;99445.41;;;11.72;93.33
73063;BME280;61230;46.328;19.972;2022-09-28T01:32:14;99451.31;;;11.74;92.09
73063;BME280;61230;46.328;19.972;2022-09-28T01:34:57;99451.13;;;11.75;92.25
73063;BME280;61230;46.328;19.972;2022-09-28T01:37:40;99444.59;;;11.71;91.45
73063;BME280;61230;46.328;19.972;2022-09-28T01:40:11;99435.03;;;11.70;92.36
73063;BME280;61230;46.328;19.972;2022-09-28T01:42:43;99439.63;;;11.76;91.67
73063;BME280;61230;46.328;19.972;2022-09-28T01:45:33;99436.97;;;11.76;91.44
73063;BME280;61230;46.328;19.972;2022-09-28T01:48:05;99444.75;;;11.70;92.11
73063;BME280;61230;46.328;19.972;2022-09-28T01:50:37;99433.53;;;11.68;91.61
73063;BME280;61230;46.328;19.972;2022-09-28T01:55:42;99444.91;;;11.68;92.43
73063;BME280;61230;46.328;19.972;2022-09-28T01:58:21;99444.75;;;11.70;92.47
73063;BME280;61230;46.328;19.972;2022-09-28T02:00:54;99443.94;;;11.69;92.69
73063;BME280;61230;46.328;19.972;2022-09-28T02:03:29;99465.03;;;11.69;92.58
73063;BME280;61230;46.328;19.972;2022-09-28T02:06:05;99466.13;;;11.67;92.00
73063;BME280;61230;46.328;19.972;2022-09-28T02:08:41;99462.38;;;11.61;92.30
73063;BME280;61230;46.328;19.972;2022-09-28T02:11:15;99465.81;;;11.62;92.04
73063;BME280;61230;46.328;19.972;2022-09-28T02:19:15;99463.38;;;11.60;91.72
73063;BME280;61230;46.328;19.972;2022-09-28T02:21:54;99464.34;;;11.59;91.26
73063;BME280;61230;46.328;19.972;2022-09-28T02:24:37;99462.72;;;11.58;89.98
73063;BME280;61230;46.328;19.972;2022-09-28T02:27:13;99465.34;;;11.58;90.08
73063;BME280;61230;46.328;19.972;2022-09-28T02:29:42;99472.25;;;11.59;89.27
73063;BME280;61230;46.328;19.972;2022-09-28T02:32:10;99474.25;;;11.57;89.03
73063;BME280;61230;46.328;19.972;2022-09-28T02:34:37;99490.41;;;11.54;89.82
73063;BME280;61230;46.328;19.972;2022-09-28T02:37:05;99480.72;;;11.46;88.67
73063;BME280;61230;46.328;19.972;2022-09-28T02:39:33;99485.16;;;11.46;89.13
73063;BME280;61230;46.328;19.972;2022-09-28T02:45:32;99495.69;;;11.46;87.85
73063;BME280;61230;46.328;19.972;2022-09-28T02:54:27;99496.38;;;11.40;86.02
73063;BME280;61230;46.328;19.972;2022-09-28T02:58:02;99503.25;;;11.41;87.92
73063;BME280;61230;46.328;19.972;2022-09-28T03:00:19;99494.69;;;11.47;86.56
73063;BME280;61230;46.328;19.972;2022-09-28T03:03:03;99478.53;;;11.50;85.72
73063;BME280;61230;46.328;19.972;2022-09-28T03:08:21;99488.63;;;11.46;85.79
73063;BME280;61230;46.328;19.972;2022-09-28T03:10:57;99487.62;;;11.47;87.20
73063;BME280;61230;46.328;19.972;2022-09-28T03:13:27;99481.38;;;11.40;87.83
73063;BME280;61230;46.328;19.972;2022-09-28T03:16:16;99490.75;;;11.43;88.43
73063;BME280;61230;46.328;19.972;2022-09-28T03:18:45;99500.63;;;11.49;87.80
73063;BME280;61230;46.328;19.972;2022-09-28T03:21:14;99495.03;;;11.52;86.91
73063;BME280;61230;46.328;19.972;2022-09-28T03:23:42;99506.53;;;11.51;86.65
73063;BME280;61230;46.328;19.972;2022-09-28T03:26:10;99497.50;;;11.45;85.61
73063;BME280;61230;46.328;19.972;2022-09-28T03:28:39;99518.91;;;11.42;86.81
73063;BME280;61230;46.328;19.972;2022-09-28T03:31:08;99502.62;;;11.31;86.26
73063;BME280;61230;46.328;19.972;2022-09-28T03:33:35;99499.47;;;11.35;86.46
73063;BME280;61230;46.328;19.972;2022-09-28T03:36:03;99497.03;;;11.34;85.79
73063;BME280;61230;46.328;19.972;2022-09-28T03:38:32;99499.03;;;11.32;85.73
73063;BME280;61230;46.328;19.972;2022-09-28T03:41:00;99505.09;;;11.32;85.29
73063;BME280;61230;46.328;19.972;2022-09-28T03:43:29;99501.16;;;11.28;86.64
73063;BME280;61230;46.328;19.972;2022-09-28T03:45:58;99500.97;;;11.30;87.30
73063;BME280;61230;46.328;19.972;2022-09-28T03:48:33;99500.97;;;11.30;87.04
73063;BME280;61230;46.328;19.972;2022-09-28T03:51:03;99500.66;;;11.25;87.51
73063;BME280;61230;46.328;19.972;2022-09-28T03:53:31;99505.94;;;11.25;87.45
73063;BME280;61230;46.328;19.972;2022-09-28T03:56:13;99502.66;;;11.23;87.96
73063;BME280;61230;46.328;19.972;2022-09-28T03:58:41;99514.84;;;11.24;88.16
73063;BME280;61230;46.328;19.972;2022-09-28T04:01:12;99509.56;;;11.24;88.37
73063;BME280;61230;46.328;19.972;2022-09-28T04:03:44;99505.63;;;11.20;88.30
73063;BME280;61230;46.328;19.972;2022-09-28T04:06:12;99485.38;;;11.04;88.50
73063;BME280;61230;46.328;19.972;2022-09-28T04:08:40;99495.28;;;11.02;90.18
73063;BME280;61230;46.328;19.972;2022-09-28T04:11:09;99494.28;;;11.03;89.48
73063;BME280;61230;46.328;19.972;2022-09-28T04:13:37;99512.06;;;11.01;88.64
73063;BME280;61230;46.328;19.972;2022-09-28T04:16:05;99519.94;;;10.93;90.40
73063;BME280;61230;46.328;19.972;2022-09-28T04:18:33;99529.31;;;10.95;89.90
73063;BME280;61230;46.328;19.972;2022-09-28T04:21:03;99535.09;;;10.91;89.22
73063;BME280;61230;46.328;19.972;2022-09-28T04:23:37;99540.34;;;10.91;89.19
73063;BME280;61230;46.328;19.972;2022-09-28T04:26:09;99540.34;;;10.91;88.74
73063;BME280;61230;46.328;19.972;2022-09-28T04:28:39;99532.47;;;10.91;88.72
73063;BME280;61230;46.328;19.972;2022-09-28T04:31:57;99535.25;;;10.89;88.74
73063;BME280;61230;46.328;19.972;2022-09-28T04:34:26;99534.25;;;10.82;87.94
73063;BME280;61230;46.328;19.972;2022-09-28T04:37:01;99539.19;;;10.85;88.08
73063;BME280;61230;46.328;19.972;2022-09-28T04:39:29;99526.03;;;10.77;87.90
73063;BME280;61230;46.328;19.972;2022-09-28T04:41:56;99533.94;;;10.85;88.26
73063;BME280;61230;46.328;19.972;2022-09-28T04:44:24;99532.28;;;10.84;88.57
73063;BME280;61230;46.328;19.972;2022-09-28T04:46:54;99534.91;;;10.84;88.72
73063;BME280;61230;46.328;19.972;2022-09-28T04:49:24;99524.38;;;10.84;89.05
73063;BME280;61230;46.328;19.972;2022-09-28T04:51:51;99541.81;;;10.85;89.29
73063;BME280;61230;46.328;19.972;2022-09-28T04:54:19;99537.53;;;10.84;88.93
73063;BME280;61230;46.328;19.972;2022-09-28T04:56:46;99540.16;;;10.84;88.45
73063;BME280;61230;46.328;19.972;2022-09-28T04:59:14;99542.47;;;10.87;88.86
73063;BME280;61230;46.328;19.972;2022-09-28T05:01:42;99552.69;;;10.90;88.79
73063;BME280;61230;46.328;19.972;2022-09-28T05:04:10;99540.53;;;10.89;89.37
73063;BME280;61230;46.328;19.972;2022-09-28T05:06:38;99529.78;;;10.59;90.15
73063;BME280;61230;46.328;19.972;2022-09-28T05:09:06;99540.81;;;10.70;89.88
73063;BME280;61230;46.328;19.972;2022-09-28T05:11:35;99548.91;;;10.77;89.87
73063;BME280;61230;46.328;19.972;2022-09-28T05:14:03;99548.91;;;10.77;89.56
73063;BME280;61230;46.328;19.972;2022-09-28T05:16:32;99547.56;;;10.73;89.05
73063;BME280;61230;46.328;19.972;2022-09-28T05:19:07;99557.13;;;10.74;88.43
73063;BME280;61230;46.328;19.972;2022-09-28T05:21:34;99557.94;;;10.74;88.31
73063;BME280;61230;46.328;19.972;2022-09-28T05:24:02;99560.41;;;10.76;88.16
73063;BME280;61230;46.328;19.972;2022-09-28T05:26:34;99567.16;;;10.78;88.44
73063;BME280;61230;46.328;19.972;2022-09-28T05:29:01;99567.81;;;10.80;89.03
73063;BME280;61230;46.328;19.972;2022-09-28T05:31:31;99563.06;;;10.84;88.96
73063;BME280;61230;46.328;19.972;2022-09-28T05:34:01;99562.06;;;10.85;88.81
73063;BME280;61230;46.328;19.972;2022-09-28T05:36:28;99567.00;;;10.88;88.96
73063;BME280;61230;46.328;19.972;2022-09-28T05:38:56;99572.91;;;10.90;89.19
73063;BME280;61230;46.328;19.972;2022-09-28T05:41:23;99575.06;;;10.94;88.79
73063;BME280;61230;46.328;19.972;2022-09-28T05:43:51;99579.66;;;11.25;92.97
73063;BME280;61230;46.328;19.972;2022-09-28T05:46:18;99584.75;;;11.50;92.68
73063;BME280;61230;46.328;19.972;2022-09-28T05:48:49;99584.25;;;11.71;92.27
73063;BME280;61230;46.328;19.972;2022-09-28T05:51:19;99589.41;;;12.03;91.89
73063;BME280;61230;46.328;19.972;2022-09-28T05:53:55;99587.69;;;12.27;91.62
73063;BME280;61230;46.328;19.972;2022-09-28T05:56:25;99586.06;;;12.26;89.18
73063;BME280;61230;46.328;19.972;2022-09-28T05:58:53;99579.34;;;12.46;90.85
73063;BME280;61230;46.328;19.972;2022-09-28T06:01:21;99573.63;;;12.65;88.40
73063;BME280;61230;46.328;19.972;2022-09-28T06:03:49;99583.03;;;12.90;89.38
73063;BME280;61230;46.328;19.972;2022-09-28T06:06:17;99576.31;;;13.10;88.47
73063;BME280;61230;46.328;19.972;2022-09-28T06:08:45;99574.31;;;13.50;86.28
73063;BME280;61230;46.328;19.972;2022-09-28T06:11:16;99570.03;;;13.63;85.55
73063;BME280;61230;46.328;19.972;2022-09-28T06:13:45;99570.50;;;13.67;86.75
73063;BME280;61230;46.328;19.972;2022-09-28T06:16:14;99576.47;;;13.46;86.73
73063;BME280;61230;46.328;19.972;2022-09-28T06:18:43;99581.09;;;13.67;88.36
73063;BME280;61230;46.328;19.972;2022-09-28T06:21:12;99586.56;;;14.38;86.19
73063;BME280;61230;46.328;19.972;2022-09-28T06:23:40;99584.06;;;14.08;84.47
73063;BME280;61230;46.328;19.972;2022-09-28T06:26:15;99584.09;;;13.93;86.00
73063;BME280;61230;46.328;19.972;2022-09-28T06:28:44;99587.00;;;13.83;83.72
73063;BME280;61230;46.328;19.972;2022-09-28T06:31:11;99583.91;;;13.95;82.46
73063;BME280;61230;46.328;19.972;2022-09-28T06:33:40;99585.00;;;14.29;82.57
73063;BME280;61230;46.328;19.972;2022-09-28T06:36:08;99588.94;;;14.04;82.08
73063;BME280;61230;46.328;19.972;2022-09-28T06:38:37;99602.97;;;14.19;83.62
73063;BME280;61230;46.328;19.972;2022-09-28T06:41:05;99603.06;;;14.41;82.72
73063;BME280;61230;46.328;19.972;2022-09-28T06:43:32;99595.56;;;14.29;81.27
73063;BME280;61230;46.328;19.972;2022-09-28T06:46:06;99600.88;;;14.44;82.19
73063;BME280;61230;46.328;19.972;2022-09-28T06:48:35;99603.97;;;14.48;81.79
73063;BME280;61230;46.328;19.972;2022-09-28T06:51:02;99604.66;;;14.56;80.88
73063;BME280;61230;46.328;19.972;2022-09-28T06:53:32;99605.03;;;14.53;79.67
73063;BME280;61230;46.328;19.972;2022-09-28T06:56:00;99600.31;;;14.49;80.54
73063;BME280;61230;46.328;19.972;2022-09-28T06:58:29;99602.44;;;14.38;79.75
73063;BME280;61230;46.328;19.972;2022-09-28T07:00:58;99598.13;;;14.52;81.30
73063;BME280;61230;46.328;19.972;2022-09-28T07:03:27;99592.88;;;14.59;79.77
73063;BME280;61230;46.328;19.972;2022-09-28T07:05:55;99585.19;;;15.00;79.96
73063;BME280;61230;46.328;19.972;2022-09-28T07:08:31;99585.94;;;14.93;78.66
73063;BME280;61230;46.328;19.972;2022-09-28T07:10:59;99599.94;;;15.09;78.38
73063;BME280;61230;46.328;19.972;2022-09-28T07:13:31;99601.84;;;15.15;78.25
73063;BME280;61230;46.328;19.972;2022-09-28T07:16:19;99608.19;;;14.99;75.58
73063;BME280;61230;46.328;19.972;2022-09-28T07:18:53;99605.72;;;15.19;76.72
73063;BME280;61230;46.328;19.972;2022-09-28T07:21:21;99598.28;;;15.08;76.95
73063;BME280;61230;46.328;19.972;2022-09-28T07:23:58;99598.28;;;15.08;77.86
73063;BME280;61230;46.328;19.972;2022-09-28T07:26:29;99594.06;;;15.13;75.41
73063;BME280;61230;46.328;19.972;2022-09-28T07:28:59;99590.09;;;15.03;74.89
73063;BME280;61230;46.328;19.972;2022-09-28T07:31:27;99593.31;;;15.68;76.39
73063;BME280;61230;46.328;19.972;2022-09-28T07:33:55;99595.00;;;15.76;75.12
73063;BME280;61230;46.328;19.972;2022-09-28T07:36:25;99601.03;;;15.91;74.84
73063;BME280;61230;46.328;19.972;2022-09-28T07:38:53;99595.22;;;15.74;70.80
73063;BME280;61230;46.328;19.972;2022-09-28T07:41:21;99596.44;;;16.06;70.26
73063;BME280;61230;46.328;19.972;2022-09-28T07:43:59;99591.84;;;16.28;72.18
73063;BME280;61230;46.328;19.972;2022-09-28T07:46:33;99579.91;;;16.10;64.93
73063;BME280;61230;46.328;19.972;2022-09-28T07:49:02;99580.63;;;16.32;69.87
73063;BME280;61230;46.328;19.972;2022-09-28T07:51:38;99590.41;;;16.25;66.25
73063;BME280;61230;46.328;19.972;2022-09-28T07:54:09;99585.53;;;16.29;66.19
73063;BME280;61230;46.328;19.972;2022-09-28T07:56:37;99588.00;;;16.43;68.49
73063;BME280;61230;46.328;19.972;2022-09-28T07:59:05;99581.28;;;16.00;54.88
73063;BME280;61230;46.328;19.972;2022-09-28T08:01:35;99582.81;;;15.53;56.68
73063;BME280;61230;46.328;19.972;2022-09-28T08:04:03;99584.69;;;14.54;60.47
73063;BME280;61230;46.328;19.972;2022-09-28T08:06:31;99589.44;;;15.22;63.22
73063;BME280;61230;46.328;19.972;2022-09-28T08:08:58;99584.81;;;15.24;62.14
73063;BME280;61230;46.328;19.972;2022-09-28T08:11:29;99593.03;;;15.35;65.05
73063;BME280;61230;46.328;19.972;2022-09-28T08:13:57;99593.47;;;15.60;64.06
73063;BME280;61230;46.328;19.972;2022-09-28T08:16:27;99586.12;;;15.90;63.67
73063;BME280;61230;46.328;19.972;2022-09-28T08:18:55;99583.56;;;16.09;62.11
73063;BME280;61230;46.328;19.972;2022-09-28T08:21:23;99591.22;;;16.26;61.52
73063;BME280;61230;46.328;19.972;2022-09-28T08:24:12;99586.69;;;16.20;61.61
73063;BME280;61230;46.328;19.972;2022-09-28T08:26:40;99581.03;;;15.61;58.29
73063;BME280;61230;46.328;19.972;2022-09-28T08:29:10;99582.13;;;16.07;60.16
73063;BME280;61230;46.328;19.972;2022-09-28T08:31:38;99583.13;;;16.40;61.49
73063;BME280;61230;46.328;19.972;2022-09-28T08:34:06;99575.22;;;16.53;62.06
73063;BME280;61230;46.328;19.972;2022-09-28T08:36:35;99573.63;;;15.84;54.74
73063;BME280;61230;46.328;19.972;2022-09-28T08:39:04;99575.16;;;15.65;54.80
73063;BME280;61230;46.328;19.972;2022-09-28T08:44:17;99571.06;;;16.44;58.20
73063;BME280;61230;46.328;19.972;2022-09-28T08:46:57;99570.16;;;16.78;60.56
73063;BME280;61230;46.328;19.972;2022-09-28T08:49:40;99570.84;;;15.92;54.49
73063;BME280;61230;46.328;19.972;2022-09-28T08:52:18;99570.72;;;15.72;55.78
73063;BME280;61230;46.328;19.972;2022-09-28T08:54:53;99562.91;;;15.98;57.58
73063;BME280;61230;46.328;19.972;2022-09-28T08:57:28;99557.38;;;16.41;60.34
73063;BME280;61230;46.328;19.972;2022-09-28T09:00:00;99564.38;;;16.07;55.47
73063;BME280;61230;46.328;19.972;2022-09-28T09:02:31;99564.53;;;16.40;55.34
73063;BME280;61230;46.328;19.972;2022-09-28T09:05:08;99563.25;;;15.55;55.92
73063;BME280;61230;46.328;19.972;2022-09-28T09:10:52;99555.62;;;16.54;58.39
73063;BME280;61230;46.328;19.972;2022-09-28T09:16:52;99563.00;;;15.84;57.40
73063;BME280;61230;46.328;19.972;2022-09-28T09:21:59;99553.50;;;16.50;57.06
73063;BME280;61230;46.328;19.972;2022-09-28T09:30:10;99557.69;;;16.65;52.09
73063;BME280;61230;46.328;19.972;2022-09-28T09:38:55;99550.59;;;17.25;51.83
73063;BME280;61230;46.328;19.972;2022-09-28T09:47:08;99543.22;;;17.53;48.21
73063;BME280;61230;46.328;19.972;2022-09-28T09:49:45;99538.72;;;17.73;52.58
73063;BME280;61230;46.328;19.972;2022-09-28T09:52:32;99541.41;;;17.08;50.19
73063;BME280;61230;46.328;19.972;2022-09-28T09:55:30;99535.87;;;17.36;51.66
73063;BME280;61230;46.328;19.972;2022-09-28T10:00:39;99536.91;;;17.08;50.27
73063;BME280;61230;46.328;19.972;2022-09-28T10:03:20;99540.38;;;17.61;52.01
73063;BME280;61230;46.328;19.972;2022-09-28T10:06:13;99530.50;;;17.82;53.42
73063;BME280;61230;46.328;19.972;2022-09-28T10:08:46;99547.06;;;17.84;51.25
73063;BME280;61230;46.328;19.972;2022-09-28T10:11:26;99546.19;;;18.09;51.75
73063;BME280;61230;46.328;19.972;2022-09-28T10:13:55;99543.25;;;18.24;52.30
73063;BME280;61230;46.328;19.972;2022-09-28T10:16:29;99536.03;;;18.31;50.34
73063;BME280;61230;46.328;19.972;2022-09-28T10:18:59;99532.50;;;18.44;51.83
73063;BME280;61230;46.328;19.972;2022-09-28T10:21:37;99531.47;;;18.51;50.33
73063;BME280;61230;46.328;19.972;2022-09-28T10:24:17;99533.81;;;18.28;48.93
73063;BME280;61230;46.328;19.972;2022-09-28T10:26:52;99537.28;;;18.28;48.94
73063;BME280;61230;46.328;19.972;2022-09-28T10:29:24;99530.09;;;18.35;48.67
73063;BME280;61230;46.328;19.972;2022-09-28T10:31:52;99540.50;;;18.50;48.05
73063;BME280;61230;46.328;19.972;2022-09-28T10:34:26;99537.19;;;18.55;48.15
73063;BME280;61230;46.328;19.972;2022-09-28T10:36:56;99533.34;;;18.37;48.56
73063;BME280;61230;46.328;19.972;2022-09-28T10:39:32;99538.97;;;18.67;48.69
73063;BME280;61230;46.328;19.972;2022-09-28T10:42:02;99522.94;;;18.74;49.17
73063;BME280;61230;46.328;19.972;2022-09-28T10:44:42;99529.03;;;18.81;49.09
73063;BME280;61230;46.328;19.972;2022-09-28T10:47:17;99526.53;;;18.86;49.71
73063;BME280;61230;46.328;19.972;2022-09-28T10:49:48;99518.78;;;18.47;50.46
73063;BME280;61230;46.328;19.972;2022-09-28T10:57:58;99521.19;;;18.92;47.08
73063;BME280;61230;46.328;19.972;2022-09-28T11:03:01;99519.97;;;18.88;46.04
73063;BME280;61230;46.328;19.972;2022-09-28T11:05:29;99516.56;;;19.06;47.34
73063;BME280;61230;46.328;19.972;2022-09-28T11:07:59;99514.91;;;19.05;47.82
73063;BME280;61230;46.328;19.972;2022-09-28T11:10:31;99503.59;;;19.10;47.03
73063;BME280;61230;46.328;19.972;2022-09-28T11:13:00;99511.09;;;19.19;45.23
73063;BME280;61230;46.328;19.972;2022-09-28T11:15:30;99510.91;;;19.21;45.58
73063;BME280;61230;46.328;19.972;2022-09-28T11:18:28;99504.63;;;19.09;44.56
73063;BME280;61230;46.328;19.972;2022-09-28T11:21:21;99505.75;;;19.19;45.93
73063;BME280;61230;46.328;19.972;2022-09-28T11:24:17;99498.72;;;19.25;47.17
73063;BME280;61230;46.328;19.972;2022-09-28T11:26:49;99495.00;;;19.32;48.06
73063;BME280;61230;46.328;19.972;2022-09-28T11:32:09;99501.34;;;19.31;46.81
73063;BME280;61230;46.328;19.972;2022-09-28T11:34:49;99501.91;;;19.40;46.99
73063;BME280;61230;46.328;19.972;2022-09-28T11:43:17;99481.72;;;19.26;45.49
73063;BME280;61230;46.328;19.972;2022-09-28T11:46:01;99485.84;;;19.22;44.95
73063;BME280;61230;46.328;19.972;2022-09-28T11:48:41;99486.16;;;19.32;44.98
73063;BME280;61230;46.328;19.972;2022-09-28T11:51:20;99490.44;;;19.39;46.31
73063;BME280;61230;46.328;19.972;2022-09-28T11:54:17;99495.28;;;19.49;45.91
73063;BME280;61230;46.328;19.972;2022-09-28T11:56:48;99487.44;;;19.29;45.74
73063;BME280;61230;46.328;19.972;2022-09-28T11:59:27;99499.16;;;19.22;44.92
73063;BME280;61230;46.328;19.972;2022-09-28T12:02:00;99480.25;;;19.05;45.29
73063;BME280;61230;46.328;19.972;2022-09-28T12:04:44;99483.56;;;19.25;45.17
73063;BME280;61230;46.328;19.972;2022-09-28T12:07:18;99488.78;;;19.38;45.16
73063;BME280;61230;46.328;19.972;2022-09-28T12:10:18;99483.78;;;19.48;45.27
73063;BME280;61230;46.328;19.972;2022-09-28T12:13:09;99478.38;;;19.55;44.82
73063;BME280;61230;46.328;19.972;2022-09-28T12:15:43;99476.28;;;19.57;43.44
73063;BME280;61230;46.328;19.972;2022-09-28T12:18:49;99477.03;;;19.46;41.72
73063;BME280;61230;46.328;19.972;2022-09-28T12:24:28;99462.63;;;19.47;43.44
73063;BME280;61230;46.328;19.972;2022-09-28T12:35:11;99447.31;;;19.42;42.53
73063;BME280;61230;46.328;19.972;2022-09-28T12:41:04;99431.56;;;19.34;42.84
73063;BME280;61230;46.328;19.972;2022-09-28T12:46:40;99432.97;;;19.37;43.50
73063;BME280;61230;46.328;19.972;2022-09-28T12:52:22;99444.50;;;19.31;42.87
73063;BME280;61230;46.328;19.972;2022-09-28T12:55:55;99440.88;;;19.25;43.72
73063;BME280;61230;46.328;19.972;2022-09-28T12:58:02;99433.44;;;19.09;45.33
73063;BME280;61230;46.328;19.972;2022-09-28T13:03:43;99429.81;;;19.22;46.33
73063;BME280;61230;46.328;19.972;2022-09-28T13:06:49;99430.41;;;19.06;45.55
73063;BME280;61230;46.328;19.972;2022-09-28T13:09:21;99417.34;;;18.98;45.59
73063;BME280;61230;46.328;19.972;2022-09-28T13:25:19;99392.22;;;18.62;47.50
73063;BME280;61230;46.328;19.972;2022-09-28T13:27:58;99390.22;;;18.58;47.53
73063;BME280;61230;46.328;19.972;2022-09-28T13:30:27;99388.66;;;18.50;47.43
73063;BME280;61230;46.328;19.972;2022-09-28T13:32:56;99389.91;;;18.41;47.48
73063;BME280;61230;46.328;19.972;2022-09-28T13:35:25;99387.94;;;18.30;48.22
73063;BME280;61230;46.328;19.972;2022-09-28T13:41:09;99375.44;;;17.99;48.90
73063;BME280;61230;46.328;19.972;2022-09-28T13:49:25;99371.56;;;17.95;49.95
73063;BME280;61230;46.328;19.972;2022-09-28T13:52:04;99360.34;;;17.87;50.73
73063;BME280;61230;46.328;19.972;2022-09-28T13:57:30;99355.88;;;17.80;52.02
73063;BME280;61230;46.328;19.972;2022-09-28T14:02:56;99363.56;;;18.02;51.81
73063;BME280;61230;46.328;19.972;2022-09-28T14:08:29;99360.22;;;18.06;52.79
73063;BME280;61230;46.328;19.972;2022-09-28T14:14:01;99354.34;;;17.98;52.10
73063;BME280;61230;46.328;19.972;2022-09-28T14:16:32;99349.62;;;18.00;52.64
73063;BME280;61230;46.328;19.972;2022-09-28T14:29:32;99347.44;;;17.90;53.69
73063;BME280;61230;46.328;19.972;2022-09-28T14:32:22;99340.31;;;17.84;53.90
73063;BME280;61230;46.328;19.972;2022-09-28T14:34:56;99341.59;;;17.75;55.03
73063;BME280;61230;46.328;19.972;2022-09-28T14:37:36;99350.97;;;17.77;55.51
73063;BME280;61230;46.328;19.972;2022-09-28T14:41:03;99348.75;;;17.74;55.61
73063;BME280;61230;46.328;19.972;2022-09-28T14:54:01;99341.69;;;17.55;57.11
73063;BME280;61230;46.328;19.972;2022-09-28T14:56:38;99339.25;;;17.47;57.78
73063;BME280;61230;46.328;19.972;2022-09-28T14:59:12;99326.38;;;17.38;57.49
73063;BME280;61230;46.328;19.972;2022-09-28T15:04:29;99331.94;;;17.36;58.07
73063;BME280;61230;46.328;19.972;2022-09-28T15:06:57;99319.66;;;17.29;57.93
73063;BME280;61230;46.328;19.972;2022-09-28T15:12:04;99337.91;;;17.18;58.17
73063;BME280;61230;46.328;19.972;2022-09-28T15:14:43;99350.81;;;17.15;58.49
73063;BME280;61230;46.328;19.972;2022-09-28T15:17:12;99359.19;;;17.12;58.92
73063;BME280;61230;46.328;19.972;2022-09-28T15:19:50;99364.53;;;17.05;59.91
73063;BME280;61230;46.328;19.972;2022-09-28T15:22:19;99363.72;;;17.05;59.63
73063;BME280;61230;46.328;19.972;2022-09-28T15:24:58;99365.56;;;16.98;59.94
73063;BME280;61230;46.328;19.972;2022-09-28T15:27:36;99375.41;;;16.91;60.10
73063;BME280;61230;46.328;19.972;2022-09-28T15:30:37;99366.19;;;16.87;60.17
73063;BME280;61230;46.328;19.972;2022-09-28T15:33:04;99376.63;;;16.82;61.34
73063;BME280;61230;46.328;19.972;2022-09-28T15:35:53;99377.44;;;16.76;60.92
73063;BME280;61230;46.328;19.972;2022-09-28T15:38:24;99383.81;;;16.68;61.80
73063;BME280;61230;46.328;19.972;2022-09-28T15:40:52;99383.37;;;16.64;61.75
73063;BME280;61230;46.328;19.972;2022-09-28T15:43:27;99388.50;;;16.59;61.62
73063;BME280;61230;46.328;19.972;2022-09-28T15:46:06;99385.66;;;16.54;62.26
73063;BME280;61230;46.328;19.972;2022-09-28T15:48:46;99385.19;;;16.51;62.49
73063;BME280;61230;46.328;19.972;2022-09-28T15:51:19;99389.66;;;16.44;63.11
73063;BME280;61230;46.328;19.972;2022-09-28T15:56:18;99381.09;;;16.35;64.04
73063;BME280;61230;46.328;19.972;2022-09-28T16:01:43;99376.78;;;16.21;64.83
73063;BME280;61230;46.328;19.972;2022-09-28T16:12:48;99381.66;;;16.04;66.04
73063;BME280;61230;46.328;19.972;2022-09-28T16:15:19;99381.88;;;16.03;65.72
73063;BME280;61230;46.328;19.972;2022-09-28T16:17:55;99383.09;;;16.00;65.91
73063;BME280;61230;46.328;19.972;2022-09-28T16:20:36;99381.25;;;15.94;66.54
73063;BME280;61230;46.328;19.972;2022-09-28T16:23:21;99379.81;;;15.92;66.85